Time;durP1;ratioP1;P1;durP2;ratioP2;P2;SDS_P1;SDS_P2;PMS_P1;PMS_P2;Temp;Humidity;BMP_temperature;BMP_pressure;BME280_temperature;BME280_humidity;BME280_pressure;Samples;Min_cycle;Max_cycle;Signal;HPM_P1;HPM_P2
2023/10/20 00:03:31;;;;;;;29.43;15.40;;;11.30;99.90;;;9.65;100.00;98348.88;10218894;28;96719;-85
2023/10/20 00:08:35;;;;;;;35.73;17.07;;;11.20;99.90;;;9.63;100.00;98358.88;10197161;28;96835;-85
2023/10/20 00:13:40;;;;;;;31.87;14.70;;;11.20;99.90;;;9.64;100.00;98355.19;10173326;28;96659;-85
2023/10/20 00:18:44;;;;;;;34.50;16.07;;;11.20;99.90;;;9.63;100.00;98347.44;10173249;28;97712;-85
2023/10/20 00:23:47;;;;;;;36.77;15.03;;;11.20;99.90;;;9.65;100.00;98348.03;10190697;28;97501;-85
2023/10/20 00:28:51;;;;;;;36.17;17.03;;;11.20;99.90;;;9.67;100.00;98338.06;10185707;28;96513;-85
2023/10/20 00:33:55;;;;;;;36.83;17.50;;;11.20;99.90;;;9.70;100.00;98321.72;10185700;28;97411;-85
2023/10/20 00:38:59;;;;;;;36.70;18.60;;;11.30;99.90;;;9.75;100.00;98316.59;10170874;28;96716;-85
2023/10/20 00:44:03;;;;;;;36.20;15.63;;;11.20;99.90;;;9.76;100.00;98299.66;10193426;28;96569;-85
2023/10/20 00:49:09;;;;;;;39.30;15.33;;;11.30;99.90;;;9.83;100.00;98300.44;10175157;28;97246;-85
2023/10/20 00:54:14;;;;;;;32.40;13.83;;;11.30;99.90;;;9.87;100.00;98280.44;10210033;28;96651;-85
2023/10/20 00:59:18;;;;;;;30.43;14.67;;;11.40;99.90;;;9.89;100.00;98270.44;10154653;28;98014;-86
2023/10/20 01:04:22;;;;;;;35.60;15.00;;;11.40;99.90;;;9.92;100.00;98280.63;10205935;28;97356;-85
2023/10/20 01:09:27;;;;;;;32.80;14.33;;;11.40;99.90;;;9.93;100.00;98269.00;10177476;28;97583;-86
2023/10/20 01:14:31;;;;;;;33.50;14.70;;;11.40;99.90;;;9.97;100.00;98264.09;10186018;28;96926;-85
2023/10/20 01:19:36;;;;;;;30.73;13.30;;;11.40;99.90;;;9.93;100.00;98236.34;10190452;28;97600;-86
2023/10/20 01:24:40;;;;;;;27.53;12.77;;;11.40;99.90;;;9.91;100.00;98233.09;10227656;28;97111;-85
2023/10/20 01:29:44;;;;;;;26.23;11.90;;;11.40;99.90;;;9.92;100.00;98234.72;10221362;28;96539;-86
2023/10/20 01:34:48;;;;;;;23.50;12.30;;;11.40;99.90;;;9.90;100.00;98236.78;10194942;28;97173;-86
2023/10/20 01:39:51;;;;;;;28.23;13.17;;;11.40;99.90;;;9.89;100.00;98225.34;10216424;28;97521;-86
2023/10/20 01:44:55;;;;;;;25.60;12.37;;;11.40;99.90;;;9.87;100.00;98218.63;10199074;28;99673;-86
2023/10/20 01:50:00;;;;;;;36.57;15.37;;;11.40;99.90;;;9.83;100.00;98201.50;10178304;28;96613;-85
2023/10/20 01:55:05;;;;;;;35.13;13.93;;;11.40;99.90;;;9.81;100.00;98193.75;10184399;28;96711;-85
2023/10/20 02:00:13;;;;;;;36.17;13.53;;;11.40;99.90;;;9.80;100.00;98199.28;10187681;28;99083;-86
2023/10/20 02:05:17;;;;;;;37.57;16.07;;;11.30;99.90;;;9.76;100.00;98187.44;10180825;28;96669;-86
2023/10/20 02:10:21;;;;;;;33.07;15.57;;;11.30;99.90;;;9.72;100.00;98165.88;10190755;28;96488;-85
2023/10/20 02:15:24;;;;;;;30.87;14.40;;;11.30;99.90;;;9.70;100.00;98183.81;10198981;28;96859;-85
2023/10/20 02:20:28;;;;;;;31.73;15.27;;;11.20;99.90;;;9.70;100.00;98189.09;10214130;28;97571;-85
2023/10/20 02:25:31;;;;;;;31.13;15.03;;;11.30;99.90;;;9.70;100.00;98175.03;10192327;28;97108;-85
2023/10/20 02:30:35;;;;;;;33.40;15.00;;;11.20;99.90;;;9.70;100.00;98167.09;10189936;28;98402;-85
2023/10/20 02:35:42;;;;;;;40.40;21.23;;;11.20;99.90;;;9.68;100.00;98175.25;10210379;28;96491;-85
2023/10/20 02:40:51;;;;;;;49.23;22.37;;;11.20;99.90;;;9.69;100.00;98160.97;10208672;28;96958;-86
2023/10/20 02:45:55;;;;;;;43.23;20.20;;;11.20;99.90;;;9.72;100.00;98165.06;10200660;28;96733;-85
2023/10/20 02:51:07;;;;;;;37.97;19.03;;;11.20;99.90;;;9.75;100.00;98176.03;10181748;28;97993;-85
2023/10/20 02:56:18;;;;;;;36.40;17.27;;;11.30;99.90;;;9.79;100.00;98163.16;10195102;28;98632;-85
2023/10/20 03:01:23;;;;;;;30.50;14.43;;;11.30;99.90;;;9.81;100.00;98166.41;10199029;28;96844;-86
2023/10/20 03:06:26;;;;;;;35.00;15.83;;;11.30;99.90;;;9.83;100.00;98154.56;10214604;28;96572;-85
2023/10/20 03:11:30;;;;;;;28.60;15.60;;;11.30;99.90;;;9.85;100.00;98173.75;10213308;28;96539;-85
2023/10/20 03:16:38;;;;;;;33.03;15.00;;;11.40;99.90;;;9.87;100.00;98162.91;10201404;28;97363;-86
2023/10/20 03:21:42;;;;;;;31.27;14.33;;;11.40;99.90;;;9.86;100.00;98178.03;10192735;28;96596;-85
2023/10/20 03:26:46;;;;;;;28.77;12.60;;;11.40;99.90;;;9.85;100.00;98164.97;10194536;28;96660;-85
2023/10/20 03:31:50;;;;;;;26.97;12.37;;;11.40;99.90;;;9.83;100.00;98167.00;10198442;28;96808;-85
2023/10/20 03:36:53;;;;;;;24.70;12.17;;;11.40;99.90;;;9.83;100.00;98177.63;10215510;28;97874;-85
2023/10/20 03:41:57;;;;;;;26.00;12.73;;;11.40;99.90;;;9.85;100.00;98173.75;10194795;28;96729;-85
2023/10/20 03:47:00;;;;;;;27.87;11.13;;;11.40;99.90;;;9.87;100.00;98169.03;10183254;28;96652;-85
2023/10/20 03:52:11;;;;;;;26.17;13.70;;;11.40;99.90;;;9.93;100.00;98164.72;10182131;28;96709;-85
2023/10/20 03:57:15;;;;;;;23.80;12.60;;;11.50;99.90;;;9.91;100.00;98149.00;10190751;28;98678;-85
2023/10/20 04:02:19;;;;;;;28.17;13.77;;;11.50;99.90;;;9.89;100.00;98156.34;10181602;28;96649;-85
2023/10/20 04:07:24;;;;;;;30.07;12.53;;;11.40;99.90;;;9.88;100.00;98130.03;10190476;28;97293;-85
2023/10/20 04:12:28;;;;;;;27.80;12.80;;;11.40;99.90;;;9.85;100.00;98136.59;10175482;28;96528;-85
2023/10/20 04:17:32;;;;;;;36.37;16.10;;;11.40;99.90;;;9.84;100.00;98132.34;10190822;28;96792;-85
2023/10/20 04:22:36;;;;;;;32.03;14.80;;;11.40;99.90;;;9.82;100.00;98144.16;10166197;28;98594;-85
2023/10/20 04:27:49;;;;;;;27.07;13.13;;;11.40;99.90;;;9.78;100.00;98142.97;10174488;28;98150;-85
2023/10/20 04:43:42;;;;;;;33.00;16.03;;;11.30;99.90;;;9.77;100.00;98141.34;10179729;28;98481;-85
2023/10/20 04:54:17;;;;;;;46.87;21.93;;;11.30;99.90;;;9.84;100.00;98132.34;10197842;28;98984;-85
2023/10/20 04:59:24;;;;;;;50.13;23.53;;;11.40;99.90;;;9.87;100.00;98131.88;10186994;28;99809;-85
2023/10/20 05:04:36;;;;;;;39.33;19.97;;;11.40;99.90;;;9.91;100.00;98116.38;10194240;28;99953;-85
2023/10/20 05:09:45;;;;;;;37.83;19.70;;;11.40;99.90;;;9.88;100.00;98130.84;10222821;28;97071;-85
2023/10/20 05:14:49;;;;;;;34.47;17.67;;;11.40;99.90;;;9.88;100.00;98130.03;10200948;28;96590;-85
2023/10/20 05:19:53;;;;;;;34.80;17.43;;;11.40;99.90;;;9.90;100.00;98128.81;10218427;28;99564;-85
2023/10/20 05:24:57;;;;;;;24.77;13.23;;;11.40;99.90;;;9.92;100.00;98140.03;10222835;28;96637;-85
2023/10/20 05:30:03;;;;;;;21.30;11.00;;;11.40;99.90;;;9.95;100.00;98137.97;10192173;28;96521;-86
2023/10/20 05:35:09;;;;;;;23.97;11.10;;;11.40;99.90;;;9.98;100.00;98137.56;10226132;28;96793;-85
2023/10/20 05:40:13;;;;;;;20.90;11.53;;;11.50;99.90;;;10.05;100.00;98139.13;10195279;28;96639;-85
2023/10/20 05:45:24;;;;;;;31.90;14.80;;;11.50;99.90;;;10.05;100.00;98147.09;10193321;28;96562;-86
2023/10/20 05:50:28;;;;;;;30.87;16.03;;;11.60;99.90;;;10.15;100.00;98143.97;10164489;28;98862;-85
2023/10/20 05:55:33;;;;;;;35.67;14.97;;;11.70;99.90;;;10.23;100.00;98146.38;10190585;28;96583;-85
2023/10/20 06:00:37;;;;;;;29.43;14.17;;;11.70;99.90;;;10.35;100.00;98136.69;10224636;28;97915;-85
2023/10/20 06:06:03;;;;;;;23.63;12.97;;;11.80;99.90;;;10.53;100.00;98129.81;10199299;28;96624;-85
2023/10/20 06:11:07;;;;;;;29.67;13.20;;;12.00;99.90;;;10.69;100.00;98139.88;10217600;28;96587;-85
2023/10/20 06:16:11;;;;;;;24.73;11.30;;;12.20;99.90;;;10.87;100.00;98142.56;10212167;28;96562;-85
2023/10/20 06:21:19;;;;;;;27.53;13.13;;;12.30;99.90;;;11.08;100.00;98143.16;10187421;28;97410;-85
2023/10/20 06:26:22;;;;;;;17.93;8.77;;;12.50;99.90;;;11.30;100.00;98136.38;10219887;28;97456;-85
2023/10/20 06:36:46;;;;;;;24.37;11.50;;;12.90;99.90;;;11.63;100.00;98119.19;10219973;28;97615;-85
2023/10/20 06:41:51;;;;;;;19.13;11.07;;;13.10;99.90;;;11.69;100.00;98129.72;10207628;28;96677;-85
2023/10/20 06:46:56;;;;;;;23.90;11.37;;;13.10;99.90;;;11.70;100.00;98120.72;10211601;28;96995;-86
2023/10/20 06:52:03;;;;;;;17.77;10.93;;;13.20;99.90;;;11.70;100.00;98130.56;10202130;28;98119;-86
2023/10/20 06:57:09;;;;;;;23.37;11.33;;;13.20;99.90;;;11.71;100.00;98126.88;10191649;28;97127;-85
2023/10/20 07:02:14;;;;;;;22.37;12.03;;;13.20;99.90;;;11.72;100.00;98125.81;10178048;28;97458;-85
2023/10/20 07:07:18;;;;;;;27.13;13.60;;;13.30;99.90;;;11.78;100.00;98128.38;10204554;28;96961;-85
2023/10/20 07:12:22;;;;;;;21.53;10.23;;;13.30;99.90;;;11.83;100.00;98125.09;10201034;28;96924;-85
2023/10/20 07:17:25;;;;;;;25.27;13.70;;;13.40;99.90;;;11.90;100.00;98117.00;10214701;28;96727;-85
2023/10/20 07:22:29;;;;;;;21.47;10.87;;;13.40;99.90;;;11.98;100.00;98132.66;10160502;28;97026;-85
2023/10/20 07:27:34;;;;;;;23.47;11.50;;;13.50;99.90;;;12.09;100.00;98129.22;10188821;28;96510;-85
2023/10/20 07:32:37;;;;;;;25.02;11.43;;;13.60;99.90;;;12.27;100.00;98123.00;10187456;28;97166;-85
2023/10/20 07:37:42;;;;;;;22.97;12.07;;;13.70;99.90;;;12.56;100.00;98130.09;10211363;28;96623;-85
2023/10/20 07:42:46;;;;;;;19.33;10.83;;;14.00;99.90;;;12.88;100.00;98121.75;10196889;28;96601;-85
2023/10/20 07:47:50;;;;;;;17.40;8.90;;;14.30;99.90;;;13.15;100.00;98129.25;10198846;28;98708;-85
2023/10/20 07:53:01;;;;;;;15.98;7.55;;;14.60;99.90;;;13.35;100.00;98111.03;10389265;27;96525;-85
2023/10/20 07:58:08;;;;;;;16.45;7.80;;;14.80;99.90;;;13.49;100.00;98103.56;10388217;27;96738;-85
2023/10/20 08:03:12;;;;;;;18.05;10.13;;;14.90;99.90;;;13.68;100.00;98086.31;10388392;27;97169;-85
2023/10/20 08:08:17;;;;;;;16.08;8.18;;;15.10;99.90;;;13.86;100.00;98086.13;10369406;28;97990;-85
2023/10/20 08:13:21;;;;;;;12.48;7.10;;;15.30;99.90;;;14.08;100.00;98099.56;10356130;28;96715;-85
2023/10/20 08:18:24;;;;;;;11.88;6.43;;;15.50;99.90;;;14.31;100.00;98085.25;10366173;28;96712;-85
2023/10/20 08:23:28;;;;;;;13.15;6.20;;;15.80;99.90;;;14.62;100.00;98083.88;10381865;28;97195;-85
2023/10/20 08:28:32;;;;;;;8.93;5.45;;;16.00;99.90;;;14.91;100.00;98092.56;10368358;28;96594;-85
2023/10/20 08:33:36;;;;;;;10.55;6.28;;;16.30;99.90;;;15.17;100.00;98093.72;10330801;28;96742;-85
2023/10/20 08:38:43;;;;;;;13.52;6.30;;;16.60;99.90;;;15.39;100.00;98099.06;10354036;28;97555;-85
2023/10/20 08:43:47;;;;;;;11.35;5.82;;;16.80;99.90;;;15.56;100.00;98101.66;10397303;27;96579;-85
2023/10/20 08:48:53;;;;;;;10.02;5.40;;;17.00;99.90;;;15.72;100.00;98103.47;10369173;28;97646;-85
2023/10/20 08:53:57;;;;;;;7.72;4.65;;;17.20;99.90;;;15.85;100.00;98101.47;10366587;28;97196;-85
2023/10/20 08:59:01;;;;;;;11.13;6.05;;;17.30;99.90;;;15.88;100.00;98101.75;10368113;28;96668;-84
2023/10/20 09:04:04;;;;;;;14.85;6.47;;;17.40;99.90;;;15.89;100.00;98118.63;10305188;28;96650;-85
2023/10/20 09:09:09;;;;;;;10.10;5.57;;;17.40;99.90;;;15.84;100.00;98105.22;10307226;28;96831;-85
2023/10/20 09:14:16;;;;;;;14.65;6.70;;;17.40;99.90;;;15.80;100.00;98091.50;10316138;28;96567;-85
2023/10/20 09:19:20;;;;;;;14.10;6.88;;;17.30;99.90;;;15.80;100.00;98096.88;10318751;28;97987;-85
2023/10/20 09:24:34;;;;;;;12.32;6.00;;;17.30;99.90;;;15.82;100.00;98080.53;10334083;28;96708;-85
2023/10/20 09:29:40;;;;;;;9.85;6.00;;;17.30;99.90;;;15.88;100.00;98074.16;10325886;28;97615;-85
2023/10/20 09:34:44;;;;;;;21.48;7.35;;;17.40;99.90;;;15.96;100.00;98060.34;10313609;28;96814;-85
2023/10/20 09:39:49;;;;;;;11.93;5.50;;;17.40;99.90;;;16.05;100.00;98054.22;10327086;28;98818;-85
2023/10/20 09:45:08;;;;;;;10.02;5.60;;;17.50;99.90;;;16.21;100.00;98052.50;10296237;28;97844;-85
2023/10/20 09:50:14;;;;;;;12.05;4.90;;;17.70;99.90;;;16.41;100.00;98037.63;10334358;28;98389;-84
2023/10/20 09:55:19;;;;;;;10.13;4.57;;;17.90;99.90;;;16.59;100.00;98043.38;10339060;28;96843;-84
2023/10/20 10:00:34;;;;;;;14.48;5.22;;;18.10;99.90;;;16.77;100.00;98028.75;10347797;28;98922;-84
2023/10/20 10:05:40;;;;;;;11.10;5.07;;;18.20;99.90;;;16.96;100.00;98022.94;10341821;28;97379;-85
2023/10/20 10:10:44;;;;;;;6.78;3.95;;;18.40;99.90;;;17.29;100.00;98002.94;10296262;28;98285;-85
2023/10/20 10:15:49;;;;;;;8.38;3.97;;;18.80;99.90;;;17.54;100.00;97983.38;10305785;28;96748;-84
2023/10/20 10:20:52;;;;;;;8.85;3.90;;;19.00;99.90;;;17.68;100.00;97992.50;10303378;28;96937;-84
2023/10/20 10:25:58;;;;;;;7.32;3.78;;;19.20;99.90;;;17.79;100.00;98021.03;10302853;28;96632;-84
2023/10/20 10:31:02;;;;;;;11.65;3.72;;;19.30;99.90;;;17.89;100.00;98007.59;10315501;28;98726;-84
2023/10/20 10:36:10;;;;;;;9.88;3.50;;;19.40;99.90;;;17.97;100.00;98013.50;10321469;28;97468;-84
2023/10/20 10:41:14;;;;;;;8.05;3.20;;;19.50;99.90;;;18.09;100.00;98011.38;10323667;28;96608;-84
2023/10/20 10:46:18;;;;;;;5.45;3.30;;;19.60;99.90;;;18.18;100.00;97994.44;10334426;28;97868;-84
2023/10/20 10:51:22;;;;;;;6.05;3.30;;;19.70;99.90;;;18.29;100.00;97997.09;10315928;28;97070;-85
2023/10/20 10:56:26;;;;;;;6.00;3.55;;;19.80;99.90;;;18.37;100.00;97975.84;10331746;28;99362;-84
2023/10/20 11:01:31;;;;;;;6.50;3.53;;;19.90;99.90;;;18.52;100.00;97952.66;10338412;28;96666;-84
2023/10/20 11:06:38;;;;;;;8.45;2.60;;;20.00;99.90;;;18.74;100.00;97949.69;10293582;28;96966;-85
2023/10/20 11:11:42;;;;;;;4.20;1.95;;;20.20;99.90;;;19.18;99.95;97942.44;10317782;28;96522;-84
2023/10/20 11:16:47;;;;;;;4.93;2.42;;;20.60;99.90;;;19.60;93.99;97916.06;10318827;28;98283;-84
2023/10/20 11:21:54;;;;;;;4.97;3.05;;;21.10;99.90;;;19.87;89.54;97908.28;10342234;28;96686;-84
2023/10/20 11:27:05;;;;;;;6.53;2.60;;;21.40;99.90;;;20.11;85.24;97891.34;10333349;28;96617;-84
2023/10/20 11:32:13;;;;;;;8.20;1.80;;;21.50;99.90;;;20.55;83.27;97905.44;10349925;28;97391;-85
2023/10/20 11:37:16;;;;;;;8.70;1.92;;;22.10;99.90;;;21.30;78.81;97885.03;10345739;28;97193;-85
2023/10/20 11:42:20;;;;;;;3.58;2.15;;;22.90;99.90;;;21.77;74.09;97891.25;10322685;28;98008;-84
2023/10/20 11:47:24;;;;;;;7.78;1.80;;;23.30;98.40;;;21.89;73.95;97897.00;10308803;28;98692;-84
2023/10/20 11:52:28;;;;;;;6.15;2.30;;;23.40;98.00;;;21.88;71.99;97900.81;10307389;28;96930;-84
2023/10/20 11:57:32;;;;;;;4.53;2.17;;;23.40;97.20;;;21.84;72.17;97910.63;10324490;28;97248;-84
2023/10/20 12:02:38;;;;;;;5.93;1.77;;;23.30;97.20;;;21.80;70.63;97904.19;10309461;28;96605;-84
2023/10/20 12:07:42;;;;;;;8.32;2.45;;;23.30;96.50;;;21.82;71.56;97919.00;10336908;28;96712;-84
2023/10/20 12:12:46;;;;;;;7.97;2.40;;;23.20;96.70;;;21.80;70.34;97917.72;10333253;28;96920;-84
2023/10/20 12:17:50;;;;;;;7.63;2.15;;;23.20;96.30;;;21.77;70.22;97915.59;10306690;28;96838;-84
2023/10/20 12:22:58;;;;;;;5.70;2.78;;;23.10;96.00;;;21.78;69.58;97899.09;10365444;28;96573;-84
2023/10/20 12:28:02;;;;;;;8.73;2.33;;;23.10;95.70;;;21.80;69.11;97887.97;10343751;28;96683;-84
2023/10/20 12:33:08;;;;;;;3.45;1.50;;;23.10;95.60;;;21.79;69.41;97889.88;10312961;28;96656;-84
2023/10/20 12:38:12;;;;;;;7.60;1.60;;;23.20;95.50;;;21.82;69.18;97883.06;10298599;28;97460;-84
2023/10/20 12:43:16;;;;;;;9.02;2.15;;;23.20;95.50;;;21.85;68.61;97871.69;10344788;28;98512;-84
2023/10/20 12:48:20;;;;;;;3.53;1.65;;;23.20;95.30;;;21.87;68.95;97855.94;10328859;28;97271;-84
2023/10/20 12:53:24;;;;;;;5.00;1.92;;;23.20;95.20;;;21.88;68.16;97844.03;10321659;28;96828;-84
2023/10/20 12:58:27;;;;;;;6.68;2.03;;;23.20;95.00;;;21.94;68.13;97840.13;10319248;28;96634;-84
2023/10/20 13:03:31;;;;;;;7.88;2.00;;;23.30;95.10;;;22.05;66.69;97844.25;10322964;28;96652;-85
2023/10/20 13:08:37;;;;;;;3.65;1.65;;;23.40;94.50;;;22.12;66.42;97835.75;10325955;28;96850;-85
2023/10/20 13:13:41;;;;;;;4.97;1.88;;;23.40;94.30;;;22.22;62.96;97842.88;10343119;28;98483;-85
2023/10/20 13:18:45;;;;;;;8.57;1.88;;;23.50;92.30;;;22.41;58.25;97833.56;10355690;28;98194;-84
2023/10/20 13:23:49;;;;;;;6.88;1.70;;;23.70;91.40;;;22.61;57.12;97835.03;10332090;28;96617;-85
2023/10/20 13:28:52;;;;;;;9.98;1.52;;;23.80;90.50;;;22.71;57.23;97851.03;10313201;28;96602;-84
2023/10/20 13:33:56;;;;;;;6.90;1.85;;;24.00;90.30;;;22.67;59.31;97865.47;10323160;28;96769;-84
2023/10/20 13:38:59;;;;;;;8.85;3.58;;;24.00;90.80;;;22.53;59.63;97857.38;10308398;28;96445;-84
2023/10/20 13:44:03;;;;;;;6.40;1.98;;;23.90;90.80;;;22.43;59.29;97847.59;10305236;28;96592;-85
2023/10/20 13:49:08;;;;;;;10.63;2.88;;;23.80;90.70;;;22.41;59.11;97838.97;10315627;28;97246;-84
2023/10/20 13:54:12;;;;;;;9.25;2.83;;;23.70;90.30;;;22.40;59.41;97839.28;10333130;28;97472;-84
2023/10/20 13:59:15;;;;;;;6.07;1.98;;;23.70;90.20;;;22.31;59.70;97835.66;10330970;28;96674;-85
2023/10/20 14:04:23;;;;;;;6.70;1.98;;;23.70;90.40;;;22.28;59.96;97831.66;10305691;28;97246;-84
2023/10/20 14:09:27;;;;;;;7.22;1.80;;;23.50;90.40;;;22.17;60.08;97830.25;10332597;28;97230;-84
2023/10/20 14:14:30;;;;;;;3.92;1.55;;;23.50;90.60;;;22.12;60.81;97830.34;10318315;28;96813;-84
2023/10/20 14:19:34;;;;;;;7.40;1.80;;;23.40;90.70;;;22.00;60.64;97836.22;10317375;28;97170;-85
2023/10/20 14:24:38;;;;;;;8.43;1.80;;;23.30;90.50;;;22.04;59.92;97834.53;10304855;28;97153;-84
2023/10/20 14:29:42;;;;;;;6.47;2.53;;;23.30;90.20;;;22.10;59.68;97836.06;10323630;28;98840;-84
2023/10/20 14:34:46;;;;;;;7.20;1.73;;;23.40;90.20;;;22.17;58.59;97852.69;10340651;28;96599;-84
2023/10/20 14:39:49;;;;;;;4.70;1.58;;;23.40;89.40;;;22.24;58.57;97868.53;10339158;28;97916;-85
2023/10/20 14:44:53;;;;;;;7.35;1.58;;;23.50;89.10;;;22.42;56.37;97859.50;10330521;28;96764;-85
2023/10/20 14:49:57;;;;;;;5.93;2.08;;;23.60;86.90;;;22.65;55.63;97852.25;10320740;28;97118;-85
2023/10/20 14:55:00;;;;;;;7.78;1.83;;;23.80;86.20;;;22.89;54.11;97854.75;10331415;28;98213;-84
2023/10/20 15:00:09;;;;;;;7.43;2.00;;;24.00;84.80;;;23.02;53.29;97855.81;10328103;28;97310;-85
2023/10/20 15:05:14;;;;;;;5.90;2.20;;;24.10;84.10;;;23.09;52.92;97855.38;10328955;28;96679;-84
2023/10/20 15:10:18;;;;;;;6.13;1.80;;;24.30;83.60;;;23.14;52.74;97856.06;10326244;28;96738;-84
2023/10/20 15:15:21;;;;;;;6.28;1.95;;;24.30;82.90;;;23.14;53.15;97850.66;10323039;28;97539;-84
2023/10/20 15:20:25;;;;;;;5.40;1.67;;;24.30;83.10;;;23.05;53.72;97851.72;10328179;28;96599;-84
2023/10/20 15:25:29;;;;;;;4.93;1.88;;;24.30;83.70;;;22.92;53.88;97853.34;10319513;28;96597;-84
2023/10/20 15:30:33;;;;;;;8.65;1.98;;;24.10;83.50;;;23.00;52.63;97847.19;10339155;28;96859;-84
2023/10/20 15:35:40;;;;;;;4.07;1.92;;;24.10;82.30;;;23.02;53.02;97869.34;10325903;28;97602;-84
2023/10/20 15:40:53;;;;;;;8.98;2.17;;;24.20;82.70;;;23.09;51.47;97872.47;10307807;28;98617;-84
2023/10/20 15:45:58;;;;;;;9.32;3.40;;;24.20;80.70;;;23.30;51.21;97877.41;10324116;28;98081;-85
2023/10/20 15:51:04;;;;;;;6.55;2.60;;;24.40;80.80;;;23.42;50.21;97883.06;10297414;28;98303;-85
2023/10/20 15:56:13;;;;;;;8.63;2.20;;;24.50;79.30;;;23.50;49.71;97893.97;10327214;28;96627;-84
2023/10/20 16:01:16;;;;;;;8.10;2.85;;;24.60;79.30;;;23.56;50.34;97897.34;10298943;28;96651;-84
2023/10/20 16:06:20;;;;;;;8.48;1.75;;;24.70;79.60;;;23.53;49.98;97906.09;10297634;28;97553;-85
2023/10/20 16:11:23;;;;;;;7.70;2.47;;;24.70;79.30;;;23.60;49.42;97930.06;10296994;28;96595;-84
2023/10/20 16:16:27;;;;;;;9.40;3.38;;;24.70;78.70;;;23.57;49.36;97915.25;10327070;28;96712;-85
2023/10/20 16:21:32;;;;;;;12.13;2.35;;;24.80;78.20;;;23.66;48.75;97923.44;10334933;28;96498;-85
2023/10/20 16:26:35;;;;;;;9.88;2.28;;;24.80;77.60;;;23.76;47.77;97940.28;10331782;28;96554;-85
2023/10/20 16:31:39;;;;;;;8.73;2.22;;;24.80;76.20;;;23.83;47.88;97942.56;10304566;28;96574;-84
2023/10/20 16:36:42;;;;;;;10.07;2.20;;;24.90;76.40;;;23.82;47.64;97934.72;10308501;28;96627;-84
2023/10/20 16:41:46;;;;;;;11.27;2.67;;;24.90;76.10;;;23.84;47.09;97936.00;10299088;28;96492;-89
2023/10/20 16:46:50;;;;;;;6.80;2.25;;;24.90;74.80;;;23.93;47.23;97928.75;10339827;28;96544;-85
2023/10/20 16:51:53;;;;;;;12.48;2.42;;;25.00;74.90;;;23.93;47.06;97949.63;10319744;28;96727;-85
2023/10/20 16:57:00;;;;;;;6.13;2.38;;;25.10;74.40;;;23.89;47.45;97948.66;10294265;28;97532;-86
2023/10/20 17:02:03;;;;;;;9.70;3.30;;;25.00;74.70;;;23.91;46.36;97958.06;10301173;28;96669;-85
2023/10/20 17:07:08;;;;;;;10.02;2.38;;;25.00;73.70;;;23.96;46.46;97955.22;10311642;28;96570;-85
2023/10/20 17:12:12;;;;;;;12.93;2.42;;;25.10;73.40;;;24.00;46.89;97933.72;10321082;28;99257;-85
2023/10/20 17:17:15;;;;;;;7.47;1.80;;;25.10;73.30;;;23.98;46.01;97954.91;10348149;28;97484;-84
2023/10/20 17:22:19;;;;;;;7.80;1.88;;;25.10;73.10;;;24.07;46.12;97953.06;10324807;28;96549;-83
2023/10/20 17:27:23;;;;;;;9.68;2.05;;;25.10;72.70;;;24.15;45.16;97952.31;10314669;28;96464;-86
2023/10/20 17:32:26;;;;;;;9.63;2.00;;;25.20;71.80;;;24.24;45.02;97966.75;10332917;28;97914;-85
2023/10/20 17:37:33;;;;;;;10.18;2.75;;;25.30;71.80;;;24.26;44.93;97967.22;10312764;28;96644;-84
2023/10/20 17:42:38;;;;;;;5.18;1.80;;;25.30;71.70;;;24.30;45.32;97968.22;10324408;28;98002;-85
2023/10/20 17:47:41;;;;;;;7.32;2.70;;;25.30;71.40;;;24.32;44.85;97972.50;10339983;28;97141;-85
2023/10/20 17:52:46;;;;;;;5.72;2.22;;;25.40;70.50;;;24.39;44.56;97967.47;10311283;28;97745;-86
2023/10/20 17:57:50;;;;;;;9.02;2.33;;;25.40;70.70;;;24.39;44.62;97978.31;10334299;28;97197;-86
2023/10/20 18:02:55;;;;;;;5.63;1.90;;;25.50;70.70;;;24.40;44.51;97961.72;10301978;28;97532;-85
2023/10/20 18:07:59;;;;;;;9.95;1.98;;;25.50;70.50;;;24.39;44.61;97976.41;10317633;28;96633;-85
2023/10/20 18:13:03;;;;;;;8.13;1.65;;;25.50;70.60;;;24.39;44.51;97972.91;10336402;28;97460;-85
2023/10/20 18:18:09;;;;;;;5.25;1.73;;;25.50;70.20;;;24.40;44.36;97969.06;10304728;28;97968;-85
2023/10/20 18:23:16;;;;;;;8.13;1.75;;;25.50;69.90;;;24.45;44.43;97985.22;10312040;28;99013;-85
2023/10/20 18:28:22;;;;;;;6.93;2.10;;;25.50;69.90;;;24.47;44.72;97991.13;10329470;28;98840;-85
2023/10/20 18:33:26;;;;;;;8.80;2.25;;;25.50;70.00;;;24.41;44.50;97981.53;10327137;28;98289;-85
2023/10/20 18:38:33;;;;;;;6.80;1.83;;;25.50;69.80;;;24.35;44.81;98009.91;10333774;28;99402;-84
2023/10/20 18:43:36;;;;;;;8.82;1.85;;;25.40;70.00;;;24.34;44.86;98013.72;10333536;28;98145;-85
2023/10/20 18:48:40;;;;;;;6.43;1.58;;;25.40;70.10;;;24.35;44.80;98018.03;10304367;28;97167;-85
2023/10/20 18:53:47;;;;;;;10.13;2.05;;;25.40;69.80;;;24.38;44.40;98022.88;10320452;28;96721;-85
2023/10/20 18:58:51;;;;;;;8.90;2.58;;;25.40;69.80;;;24.37;44.63;98035.66;10298813;28;97439;-85
2023/10/20 19:03:54;;;;;;;6.15;1.63;;;25.40;69.50;;;24.40;44.06;98026.06;10305555;28;98808;-86
2023/10/20 19:08:58;;;;;;;6.18;1.85;;;25.40;69.20;;;24.41;44.60;98030.38;10299268;28;98123;-84
2023/10/20 19:14:04;;;;;;;5.22;1.70;;;25.40;69.40;;;24.38;44.34;98029.09;10319378;28;98533;-84
2023/10/20 19:19:08;;;;;;;5.45;1.80;;;25.40;69.60;;;24.34;45.00;98046.28;10280455;28;97560;-84
2023/10/20 19:24:12;;;;;;;6.88;1.27;;;25.40;69.60;;;24.30;44.75;98046.13;10297087;28;97293;-84
2023/10/20 19:29:16;;;;;;;9.20;2.05;;;25.40;69.80;;;24.29;44.71;98058.09;10287460;28;97975;-84
2023/10/20 19:34:19;;;;;;;6.47;1.60;;;25.40;69.70;;;24.24;44.97;98055.50;10332808;28;98645;-85
2023/10/20 19:39:23;;;;;;;4.55;1.55;;;25.30;69.80;;;24.17;45.18;98069.50;10302426;28;98774;-84
2023/10/20 19:44:28;;;;;;;6.45;1.77;;;25.30;70.00;;;24.09;45.63;98051.22;10298805;28;98691;-84
2023/10/20 19:49:31;;;;;;;7.25;1.85;;;25.20;70.00;;;23.96;45.94;98057.50;10299104;28;98773;-84
2023/10/20 19:54:35;;;;;;;7.43;1.60;;;25.10;70.30;;;23.72;46.76;98053.16;10328079;28;99795;-85
2023/10/20 19:59:41;;;;;;;6.40;1.85;;;24.90;70.80;;;23.54;47.40;98092.03;10306304;28;96948;-84
2023/10/20 20:04:45;;;;;;;7.88;2.33;;;24.70;71.30;;;23.30;48.25;98089.56;10295484;28;98101;-84
2023/10/20 20:09:49;;;;;;;5.95;1.85;;;24.50;72.00;;;23.04;49.10;98102.00;10299772;28;99070;-84
2023/10/20 20:14:52;;;;;;;8.65;2.00;;;24.30;72.70;;;22.75;50.19;98115.78;10289802;28;98272;-84
2023/10/20 20:19:58;;;;;;;8.93;3.22;;;24.00;73.50;;;22.48;51.01;98119.19;10322011;28;99097;-84
2023/10/20 20:25:02;;;;;;;8.43;3.45;;;23.70;74.30;;;22.23;52.16;98128.53;10341787;28;99381;-84
2023/10/20 20:30:07;;;;;;;9.20;5.18;;;23.50;74.90;;;21.99;53.44;98147.50;10316980;28;98909;-83
2023/10/20 20:35:11;;;;;;;8.35;3.45;;;23.20;75.70;;;21.73;54.65;98160.56;10293004;28;98583;-83
2023/10/20 20:40:15;;;;;;;6.90;2.35;;;23.00;76.50;;;21.40;55.90;98146.91;10336076;28;98110;-84
2023/10/20 20:45:18;;;;;;;5.50;1.88;;;22.70;77.40;;;21.13;56.70;98135.84;10293895;28;98053;-84
2023/10/20 20:50:22;;;;;;;5.20;2.00;;;22.40;78.10;;;20.88;58.38;98155.81;10307627;28;97523;-84
2023/10/20 20:55:36;;;;;;;5.05;1.95;;;22.10;79.00;;;20.67;58.91;98161.38;10313156;28;98311;-84
2023/10/20 21:00:43;;;;;;;4.93;1.92;;;21.90;79.70;;;20.51;59.38;98163.41;10307764;28;98991;-84
2023/10/20 21:05:58;;;;;;;10.40;2.88;;;21.80;80.20;;;20.31;61.17;98177.00;10322789;28;98441;-84
2023/10/20 21:11:11;;;;;;;6.90;2.20;;;21.60;81.00;;;20.19;61.64;98184.63;10304122;28;98049;-84
2023/10/20 21:16:14;;;;;;;8.20;2.08;;;21.50;81.60;;;19.99;63.07;98188.28;10350150;28;97231;-84